createdAt,value
2019-03-19T00:00:13.740Z,67.27
2019-03-19T00:02:42.007Z,67.48
2019-03-19T00:05:10.452Z,67.39
2019-03-19T00:07:38.658Z,66.78
2019-03-19T00:10:08.597Z,67.17
2019-03-19T00:12:36.798Z,67.24
2019-03-19T00:15:07.290Z,67.25
2019-03-19T00:17:35.498Z,67.20
2019-03-19T00:20:05.697Z,67.25
2019-03-19T00:22:33.905Z,67.35
2019-03-19T00:25:02.101Z,67.66
2019-03-19T00:27:30.315Z,67.67
2019-03-19T00:29:58.509Z,67.71
2019-03-19T00:32:26.709Z,67.98
2019-03-19T00:34:54.925Z,67.97
2019-03-19T00:37:23.115Z,68.00
2019-03-19T00:39:51.332Z,67.95
2019-03-19T00:42:19.536Z,68.11
2019-03-19T00:44:47.744Z,68.16
2019-03-19T00:47:15.944Z,68.18
2019-03-19T00:49:44.162Z,68.18
2019-03-19T00:52:12.362Z,67.92
2019-03-19T00:54:40.576Z,67.96
2019-03-19T00:57:09.021Z,67.95
2019-03-19T00:59:37.221Z,67.85
2019-03-19T01:02:05.425Z,67.74
2019-03-19T01:04:33.625Z,67.56
2019-03-19T01:07:01.837Z,67.45
2019-03-19T01:09:30.033Z,67.50
2019-03-19T01:11:58.240Z,67.66
2019-03-19T01:14:26.442Z,67.55
2019-03-19T01:16:54.649Z,67.69
2019-03-19T01:19:22.846Z,67.76
2019-03-19T01:21:51.067Z,67.93
2019-03-19T01:24:19.263Z,68.13
2019-03-19T01:26:47.463Z,68.06
2019-03-19T01:29:15.670Z,68.17
2019-03-19T01:31:43.870Z,68.42
2019-03-19T01:34:12.082Z,68.44
2019-03-19T01:36:40.297Z,68.54
2019-03-19T01:39:08.495Z,68.70
2019-03-19T01:41:36.692Z,68.70
2019-03-19T01:44:04.903Z,68.71
2019-03-19T01:46:33.090Z,68.65
2019-03-19T01:49:01.294Z,68.66
2019-03-19T01:51:29.504Z,68.73
2019-03-19T01:53:57.699Z,68.79
2019-03-19T01:56:25.912Z,68.89
2019-03-19T01:58:54.114Z,68.93
2019-03-19T02:01:23.035Z,68.94
2019-03-19T02:03:51.237Z,68.78
2019-03-19T02:06:19.445Z,68.50
2019-03-19T02:08:47.646Z,68.62
2019-03-19T02:11:15.862Z,68.79
2019-03-19T02:13:44.064Z,68.93
2019-03-19T02:16:12.280Z,69.04
2019-03-19T02:18:40.483Z,69.08
2019-03-19T02:21:08.700Z,69.02
2019-03-19T02:23:36.901Z,69.07
2019-03-19T02:26:15.581Z,68.95
2019-03-19T02:28:35.031Z,69.01
2019-03-19T02:31:03.251Z,68.85
2019-03-19T02:33:31.442Z,68.72
2019-03-19T02:35:59.674Z,68.82
2019-03-19T02:38:27.847Z,68.76
2019-03-19T02:40:56.064Z,68.80
2019-03-19T02:43:24.267Z,68.93
2019-03-19T02:45:52.473Z,69.10
2019-03-19T02:48:20.685Z,69.22
2019-03-19T02:50:48.879Z,69.10
2019-03-19T02:53:17.077Z,69.23
2019-03-19T02:55:45.296Z,69.29
2019-03-19T02:58:13.508Z,69.31
2019-03-19T03:00:41.711Z,69.31
2019-03-19T03:03:09.910Z,69.46
2019-03-19T03:05:38.109Z,69.40
2019-03-19T03:08:06.320Z,69.34
2019-03-19T03:10:34.527Z,69.36
2019-03-19T03:13:02.730Z,69.51
2019-03-19T03:15:30.943Z,69.61
2019-03-19T03:17:59.148Z,69.45
2019-03-19T03:20:27.384Z,69.73
2019-03-19T03:22:55.565Z,69.54
2019-03-19T03:25:23.781Z,69.70
2019-03-19T03:27:51.989Z,69.78
2019-03-19T03:30:23.795Z,69.69
2019-03-19T03:32:52.151Z,69.55
2019-03-19T03:35:20.322Z,69.70
2019-03-19T03:37:48.551Z,69.62
2019-03-19T03:40:20.110Z,69.67
2019-03-19T03:42:48.357Z,69.69
2019-03-19T03:45:17.354Z,69.82
2019-03-19T03:47:45.568Z,69.89
2019-03-19T03:50:14.806Z,69.76
2019-03-19T03:52:43.035Z,70.01
2019-03-19T03:55:12.719Z,70.03
2019-03-19T03:57:41.002Z,69.97
2019-03-19T04:00:16.877Z,70.00
2019-03-19T04:02:45.130Z,69.85
2019-03-19T04:05:13.277Z,70.05
2019-03-19T04:07:41.489Z,69.97
2019-03-19T04:10:11.687Z,69.98
2019-03-19T04:12:40.097Z,70.00
2019-03-19T04:15:11.622Z,70.20
2019-03-19T04:17:39.853Z,70.03
2019-03-19T04:20:09.660Z,70.06
2019-03-19T04:22:37.934Z,70.14
2019-03-19T04:25:07.248Z,70.18
2019-03-19T04:27:35.431Z,70.34
2019-03-19T04:30:05.533Z,70.34
2019-03-19T04:32:33.732Z,70.58
2019-03-19T04:35:01.945Z,70.56
2019-03-19T04:37:30.153Z,70.67
2019-03-19T04:39:58.349Z,70.81
2019-03-19T04:42:26.560Z,70.62
2019-03-19T04:44:54.758Z,70.51
2019-03-19T04:47:22.968Z,70.20
2019-03-19T04:49:51.407Z,70.24
2019-03-19T04:52:19.616Z,70.14
2019-03-19T04:54:47.817Z,70.20
2019-03-19T04:57:26.204Z,70.29
2019-03-19T04:59:45.956Z,70.37
2019-03-19T05:02:14.172Z,70.31
2019-03-19T05:04:42.377Z,70.35
2019-03-19T05:07:10.838Z,70.25
2019-03-19T05:09:39.037Z,70.35
2019-03-19T05:12:07.247Z,70.42
2019-03-19T05:14:35.446Z,70.63
2019-03-19T05:17:03.662Z,70.54
2019-03-19T05:19:31.862Z,70.43
2019-03-19T05:22:00.091Z,70.85
2019-03-19T05:24:28.284Z,70.85
2019-03-19T05:26:56.489Z,70.84
2019-03-19T05:29:24.708Z,71.05
2019-03-19T05:31:52.903Z,70.78
2019-03-19T05:34:21.111Z,70.85
2019-03-19T05:36:49.310Z,70.95
2019-03-19T05:39:17.529Z,71.03
2019-03-19T05:41:45.727Z,71.37
2019-03-19T05:44:13.923Z,71.18
2019-03-19T05:46:42.135Z,71.16
2019-03-19T05:49:10.330Z,71.72
2019-03-19T05:51:38.542Z,71.10
2019-03-19T05:54:06.739Z,70.70
2019-03-19T05:56:34.958Z,70.86
2019-03-19T05:59:03.156Z,70.54
2019-03-19T06:01:31.364Z,70.95
2019-03-19T06:04:01.044Z,70.70
2019-03-19T06:06:29.254Z,70.55
2019-03-19T06:08:57.451Z,70.50
2019-03-19T06:11:25.652Z,70.72
2019-03-19T06:13:53.854Z,70.38
2019-03-19T06:16:22.064Z,70.40
2019-03-19T06:18:50.262Z,70.38
2019-03-19T06:21:18.480Z,70.17
2019-03-19T06:23:46.679Z,69.92
2019-03-19T06:26:14.883Z,70.06
2019-03-19T06:28:43.091Z,69.83
2019-03-19T06:31:11.293Z,69.67
2019-03-19T06:33:39.502Z,69.66
2019-03-19T06:36:07.706Z,69.55
2019-03-19T06:38:35.926Z,69.37
2019-03-19T06:41:04.126Z,69.35
2019-03-19T06:43:32.325Z,69.33
2019-03-19T06:46:00.543Z,69.08
2019-03-19T06:48:28.743Z,68.91
2019-03-19T06:50:57.028Z,68.76
2019-03-19T06:53:25.228Z,68.74
2019-03-19T06:55:53.448Z,68.75
2019-03-19T06:58:21.647Z,68.69
2019-03-19T07:00:49.848Z,68.71
2019-03-19T07:03:18.062Z,68.97
2019-03-19T07:05:46.264Z,68.63
2019-03-19T07:08:14.477Z,68.54
2019-03-19T07:10:42.677Z,68.55
2019-03-19T07:13:10.885Z,68.44
2019-03-19T07:15:39.085Z,68.36
2019-03-19T07:18:07.293Z,68.32
2019-03-19T07:20:35.500Z,68.38
2019-03-19T07:23:03.883Z,68.28
2019-03-19T07:25:32.077Z,68.23
2019-03-19T07:28:00.298Z,68.17
2019-03-19T07:30:28.494Z,68.20
2019-03-19T07:32:56.701Z,68.05
2019-03-19T07:35:24.901Z,67.99
2019-03-19T07:37:53.123Z,67.97
2019-03-19T07:40:21.578Z,67.82
2019-03-19T07:42:49.793Z,67.72
2019-03-19T07:45:24.841Z,67.65
2019-03-19T07:47:53.030Z,67.48
2019-03-19T07:50:22.071Z,67.45
2019-03-19T07:52:50.270Z,67.43
2019-03-19T07:55:18.487Z,67.62
2019-03-19T07:57:46.761Z,67.60
2019-03-19T08:00:18.780Z,67.64
2019-03-19T08:02:47.055Z,67.56
2019-03-19T08:05:15.273Z,67.26
2019-03-19T08:07:43.474Z,67.25
2019-03-19T08:10:16.708Z,67.20
2019-03-19T08:12:44.899Z,67.06
2019-03-19T08:15:15.309Z,66.93
2019-03-19T08:17:43.506Z,66.82
2019-03-19T08:20:12.942Z,66.52
2019-03-19T08:22:41.151Z,66.36
2019-03-19T08:25:11.846Z,66.21
2019-03-19T08:27:40.131Z,66.05
2019-03-19T08:30:14.667Z,65.99
2019-03-19T08:32:42.863Z,65.47
2019-03-19T08:35:11.071Z,65.25
2019-03-19T08:37:39.271Z,65.32
2019-03-19T08:40:14.756Z,65.11
2019-03-19T08:42:42.944Z,64.96
2019-03-19T08:45:14.405Z,64.29
2019-03-19T08:47:42.609Z,64.20
2019-03-19T08:50:14.167Z,63.79
2019-03-19T08:52:42.355Z,63.54
2019-03-19T08:55:10.560Z,63.07
2019-03-19T08:57:38.762Z,62.95
2019-03-19T09:00:10.285Z,62.70
2019-03-19T09:02:38.486Z,63.21
2019-03-19T09:05:08.823Z,63.47
2019-03-19T09:07:37.050Z,63.11
2019-03-19T09:10:12.899Z,62.59
2019-03-19T09:12:41.111Z,62.24
2019-03-19T09:15:12.321Z,62.70
2019-03-19T09:17:40.534Z,61.94
2019-03-19T09:20:16.247Z,61.92
2019-03-19T09:22:44.460Z,61.44
2019-03-19T09:25:12.662Z,61.62
2019-03-19T09:27:40.873Z,61.48
2019-03-19T09:30:19.771Z,61.31
2019-03-19T09:32:47.978Z,60.77
2019-03-19T09:35:16.184Z,60.29
2019-03-19T09:37:53.654Z,59.26
2019-03-19T09:40:18.239Z,59.80
2019-03-19T09:42:46.441Z,58.76
2019-03-19T09:45:17.661Z,59.31
2019-03-19T09:47:46.121Z,59.44
2019-03-19T09:50:18.299Z,59.44
2019-03-19T09:52:46.493Z,58.65
2019-03-19T09:55:14.774Z,57.12
2019-03-19T09:57:42.975Z,58.21
2019-03-19T10:00:18.509Z,58.72
2019-03-19T10:02:46.699Z,57.99
2019-03-19T10:05:14.919Z,57.83
2019-03-19T10:07:43.116Z,57.83
2019-03-19T10:10:14.326Z,57.83
2019-03-19T10:12:42.527Z,57.42
2019-03-19T10:15:11.522Z,56.91
2019-03-19T10:17:39.726Z,57.24
2019-03-19T10:20:11.198Z,57.88
2019-03-19T10:22:39.404Z,57.88
2019-03-19T10:25:10.160Z,57.94
2019-03-19T10:27:38.370Z,57.26
2019-03-19T10:30:09.810Z,55.32
2019-03-19T10:32:38.023Z,56.90
2019-03-19T10:35:06.491Z,57.03
2019-03-19T10:37:34.710Z,57.22
2019-03-19T10:40:02.984Z,56.51
2019-03-19T10:42:31.194Z,56.86
2019-03-19T10:44:59.397Z,57.91
2019-03-19T10:47:27.603Z,58.02
2019-03-19T10:49:55.814Z,58.02
2019-03-19T10:52:24.011Z,57.19
2019-03-19T10:54:52.217Z,57.19
2019-03-19T10:57:20.424Z,57.52
2019-03-19T10:59:50.539Z,57.34
2019-03-19T11:02:18.742Z,56.71
2019-03-19T11:04:46.943Z,56.55
2019-03-19T11:07:15.419Z,55.52
2019-03-19T11:09:43.624Z,55.61
2019-03-19T11:12:11.834Z,55.25
2019-03-19T11:14:40.037Z,54.27
2019-03-19T11:17:08.253Z,54.95
2019-03-19T11:19:36.453Z,55.12
2019-03-19T11:22:04.651Z,55.63
2019-03-19T11:24:32.857Z,55.47
2019-03-19T11:27:01.307Z,55.26
2019-03-19T11:29:29.535Z,54.78
2019-03-19T11:31:57.733Z,53.68
2019-03-19T11:34:25.938Z,53.10
2019-03-19T11:36:58.025Z,52.10
2019-03-19T11:39:24.066Z,51.33
2019-03-19T11:41:52.277Z,52.97
2019-03-19T11:44:21.662Z,52.97
2019-03-19T11:46:49.885Z,52.93
2019-03-19T11:49:18.097Z,52.04
2019-03-19T11:51:46.297Z,52.04
2019-03-19T11:54:14.507Z,52.29
2019-03-19T11:56:42.711Z,53.00
2019-03-19T11:59:10.924Z,53.00
2019-03-19T12:01:39.112Z,53.51
2019-03-19T12:04:07.314Z,53.90
2019-03-19T12:06:35.528Z,54.13
2019-03-19T12:09:04.789Z,53.46
2019-03-19T12:11:32.997Z,51.91
2019-03-19T12:14:01.190Z,51.90
2019-03-19T12:16:29.394Z,51.90
2019-03-19T12:18:57.661Z,51.83
2019-03-19T12:21:25.871Z,51.15
2019-03-19T12:23:54.073Z,50.79
2019-03-19T12:26:22.291Z,50.79
2019-03-19T12:28:50.479Z,50.48
2019-03-19T12:31:18.694Z,49.87
2019-03-19T12:33:46.893Z,49.87
2019-03-19T12:36:15.169Z,50.51
2019-03-19T12:38:43.375Z,50.70
2019-03-19T12:41:11.597Z,50.78
2019-03-19T12:43:39.795Z,50.68
2019-03-19T12:46:08.739Z,50.67
2019-03-19T12:48:36.949Z,50.55
2019-03-19T12:51:05.152Z,50.55
2019-03-19T12:53:33.363Z,49.62
2019-03-19T12:56:01.636Z,49.72
2019-03-19T12:58:29.843Z,50.30
2019-03-19T13:00:58.079Z,50.44
2019-03-19T13:03:26.263Z,50.21
2019-03-19T13:05:55.199Z,50.21
2019-03-19T13:08:23.399Z,50.31
2019-03-19T13:10:51.614Z,50.31
2019-03-19T13:13:19.808Z,50.31
2019-03-19T13:15:48.004Z,51.04
2019-03-19T13:18:16.193Z,51.39
2019-03-19T13:20:44.490Z,50.50
2019-03-19T13:23:12.686Z,50.42
2019-03-19T13:25:41.175Z,50.25
2019-03-19T13:28:09.375Z,50.19
2019-03-19T13:30:45.028Z,50.44
2019-03-19T13:33:08.624Z,50.48
2019-03-19T13:35:37.038Z,49.84
2019-03-19T13:38:05.594Z,50.48
2019-03-19T13:40:33.946Z,50.72
2019-03-19T13:43:02.135Z,49.69
2019-03-19T13:45:30.345Z,49.51
2019-03-19T13:47:58.538Z,49.00
2019-03-19T13:50:27.727Z,49.04
2019-03-19T13:52:55.926Z,49.04
2019-03-19T13:55:24.189Z,48.22
2019-03-19T13:57:52.408Z,48.71
2019-03-19T14:00:21.351Z,49.28
2019-03-19T14:02:49.539Z,49.44
2019-03-19T14:05:18.022Z,49.82
2019-03-19T14:07:46.220Z,50.06
2019-03-19T14:10:17.909Z,49.75
2019-03-19T14:12:46.347Z,49.69
2019-03-19T14:15:22.704Z,49.69
2019-03-19T14:17:50.907Z,49.34
2019-03-19T14:20:19.273Z,49.87
2019-03-19T14:22:47.481Z,49.50
2019-03-19T14:25:16.379Z,49.95
2019-03-19T14:27:44.605Z,50.06
2019-03-19T14:30:19.770Z,49.94
2019-03-19T14:32:47.957Z,50.11
2019-03-19T14:35:16.209Z,49.22
2019-03-19T14:37:44.397Z,49.22
2019-03-19T14:40:17.066Z,48.71
2019-03-19T14:42:45.275Z,48.97
2019-03-19T14:45:14.045Z,48.87
2019-03-19T14:47:42.254Z,48.87
2019-03-19T14:50:13.699Z,49.06
2019-03-19T14:52:43.774Z,48.74
2019-03-19T14:55:11.823Z,48.74
2019-03-19T14:57:40.027Z,49.22
2019-03-19T15:00:13.949Z,48.71
2019-03-19T15:02:42.150Z,49.04
2019-03-19T15:05:11.580Z,48.80
2019-03-19T15:07:39.804Z,48.91
2019-03-19T15:10:10.702Z,48.68
2019-03-19T15:12:38.907Z,49.10
2019-03-19T15:15:09.772Z,49.39
2019-03-19T15:17:37.976Z,49.61
2019-03-19T15:20:11.910Z,49.71
2019-03-19T15:22:40.113Z,49.83
2019-03-19T15:25:08.997Z,50.10
2019-03-19T15:27:37.197Z,50.33
2019-03-19T15:30:08.662Z,50.48
2019-03-19T15:32:36.858Z,50.39
2019-03-19T15:35:07.206Z,50.27
2019-03-19T15:37:36.754Z,50.60
2019-03-19T15:40:08.152Z,50.85
2019-03-19T15:42:37.090Z,50.85
2019-03-19T15:45:10.501Z,50.88
2019-03-19T15:47:38.698Z,50.92
2019-03-19T15:50:09.788Z,50.81
2019-03-19T15:52:37.998Z,50.88
2019-03-19T15:55:07.037Z,50.67
2019-03-19T15:57:35.250Z,50.89
2019-03-19T16:00:04.594Z,50.89
2019-03-19T16:02:32.863Z,50.88
2019-03-19T16:05:01.015Z,51.03
2019-03-19T16:07:29.283Z,51.03
2019-03-19T16:09:57.725Z,51.06
2019-03-19T16:12:25.933Z,51.26
2019-03-19T16:14:54.131Z,51.43
2019-03-19T16:17:22.341Z,51.58
2019-03-19T16:19:50.539Z,51.54
2019-03-19T16:22:19.212Z,51.72
2019-03-19T16:24:47.415Z,51.62
2019-03-19T16:27:15.621Z,51.86
2019-03-19T16:29:43.819Z,51.93
2019-03-19T16:32:12.031Z,51.72
2019-03-19T16:34:40.229Z,51.92
2019-03-19T16:37:08.438Z,51.94
2019-03-19T16:39:36.626Z,52.09
2019-03-19T16:42:04.825Z,52.01
2019-03-19T16:44:33.031Z,52.20
2019-03-19T16:47:01.228Z,52.25
2019-03-19T16:49:29.438Z,52.26
2019-03-19T16:51:57.636Z,52.77
2019-03-19T16:54:25.848Z,52.77
2019-03-19T16:56:54.044Z,52.94
2019-03-19T16:59:22.319Z,53.12
2019-03-19T17:02:01.096Z,53.34
2019-03-19T17:04:20.407Z,53.95
2019-03-19T17:06:48.616Z,53.95
2019-03-19T17:09:16.868Z,54.26
2019-03-19T17:11:45.076Z,54.38
2019-03-19T17:14:13.352Z,54.49
2019-03-19T17:16:41.561Z,54.71
2019-03-19T17:19:09.772Z,54.86
2019-03-19T17:21:37.979Z,55.07
2019-03-19T17:24:06.181Z,55.14
2019-03-19T17:26:34.398Z,55.20
2019-03-19T17:29:02.604Z,55.53
2019-03-19T17:31:30.799Z,55.53
2019-03-19T17:33:59.002Z,55.67
2019-03-19T17:36:27.425Z,55.80
2019-03-19T17:38:55.632Z,55.80
2019-03-19T17:41:23.879Z,56.19
2019-03-19T17:43:53.560Z,56.43
2019-03-19T17:46:21.882Z,56.66
2019-03-19T17:48:52.280Z,56.66
2019-03-19T17:51:20.358Z,56.73
2019-03-19T17:53:48.559Z,56.93
2019-03-19T17:56:16.765Z,57.29
2019-03-19T17:58:44.968Z,57.42
2019-03-19T18:01:17.317Z,57.71
2019-03-19T18:03:43.103Z,57.96
2019-03-19T18:06:11.309Z,58.27
2019-03-19T18:08:39.517Z,58.33
2019-03-19T18:11:07.724Z,58.33
2019-03-19T18:13:35.925Z,58.17
2019-03-19T18:16:04.132Z,58.28
2019-03-19T18:18:32.342Z,58.29
2019-03-19T18:21:00.571Z,58.20
2019-03-19T18:23:29.541Z,58.17
2019-03-19T18:25:58.813Z,58.30
2019-03-19T18:28:27.003Z,58.50
2019-03-19T18:30:55.436Z,58.86
2019-03-19T18:33:23.646Z,58.92
2019-03-19T18:35:55.139Z,59.22
2019-03-19T18:38:21.772Z,59.37
2019-03-19T18:40:49.968Z,59.87
2019-03-19T18:43:18.180Z,60.02
2019-03-19T18:45:46.381Z,60.27
2019-03-19T18:48:14.590Z,60.16
2019-03-19T18:50:42.818Z,60.33
2019-03-19T18:53:11.032Z,60.38
2019-03-19T18:55:39.485Z,60.70
2019-03-19T18:58:07.699Z,60.88
2019-03-19T19:00:35.901Z,61.20
2019-03-19T19:03:04.121Z,61.31
2019-03-19T19:05:32.332Z,61.32
2019-03-19T19:08:00.540Z,61.50
2019-03-19T19:10:28.734Z,61.34
2019-03-19T19:12:56.942Z,61.36
2019-03-19T19:15:25.413Z,61.63
2019-03-19T19:17:53.629Z,61.70
2019-03-19T19:20:22.503Z,61.77
2019-03-19T19:22:50.704Z,61.81
2019-03-19T19:25:23.735Z,61.85
2019-03-19T19:27:51.935Z,62.01
2019-03-19T19:30:21.383Z,62.13
2019-03-19T19:33:00.505Z,62.25
2019-03-19T19:35:19.515Z,62.27
2019-03-19T19:37:47.718Z,62.45
2019-03-19T19:40:17.712Z,62.57
2019-03-19T19:42:45.927Z,62.38
2019-03-19T19:45:17.327Z,62.54
2019-03-19T19:47:45.533Z,62.49
2019-03-19T19:50:20.752Z,62.67
2019-03-19T19:52:48.908Z,62.74
2019-03-19T19:55:17.109Z,63.04
2019-03-19T19:57:45.318Z,62.76
2019-03-19T20:00:21.708Z,62.82
2019-03-19T20:02:50.743Z,62.76
2019-03-19T20:05:18.946Z,62.54
2019-03-19T20:07:47.159Z,62.42
2019-03-19T20:10:20.226Z,62.43
2019-03-19T20:12:48.439Z,62.64
2019-03-19T20:15:16.642Z,62.93
2019-03-19T20:17:44.854Z,63.37
2019-03-19T20:20:17.688Z,63.54
2019-03-19T20:22:45.925Z,63.89
2019-03-19T20:25:14.471Z,64.06
2019-03-19T20:27:42.671Z,63.97
2019-03-19T20:30:17.067Z,64.35
2019-03-19T20:32:45.264Z,64.57
2019-03-19T20:35:13.470Z,64.94
2019-03-19T20:37:41.673Z,65.17
2019-03-19T20:40:14.999Z,65.17
2019-03-19T20:42:43.200Z,65.28
2019-03-19T20:45:26.496Z,65.58
2019-03-19T20:47:54.708Z,65.33
2019-03-19T20:50:35.272Z,65.66
2019-03-19T20:53:03.473Z,65.31
2019-03-19T20:55:31.699Z,65.21
2019-03-19T20:57:59.887Z,65.18
2019-03-19T21:00:28.111Z,65.24
2019-03-19T21:02:56.310Z,65.13
2019-03-19T21:05:24.527Z,64.89
2019-03-19T21:07:52.733Z,65.26
2019-03-19T21:10:24.677Z,65.45
2019-03-19T21:12:52.860Z,65.54
2019-03-19T21:15:32.812Z,65.75
2019-03-19T21:18:01.024Z,65.82
2019-03-19T21:20:29.217Z,66.07
2019-03-19T21:22:57.425Z,66.27
2019-03-19T21:25:25.633Z,66.42
2019-03-19T21:27:53.840Z,66.33
2019-03-19T21:30:22.885Z,66.34
2019-03-19T21:32:51.094Z,66.37
2019-03-19T21:35:22.991Z,66.48
2019-03-19T21:37:51.216Z,66.98
2019-03-19T21:40:19.487Z,66.92
2019-03-19T21:42:47.693Z,66.70
2019-03-19T21:45:17.043Z,66.87
2019-03-19T21:47:45.245Z,66.58
2019-03-19T21:50:18.183Z,66.59
2019-03-19T21:52:46.385Z,66.64
2019-03-19T21:55:14.594Z,66.60
2019-03-19T21:57:43.044Z,66.65
2019-03-19T22:00:22.041Z,66.58
2019-03-19T22:02:50.240Z,66.47
2019-03-19T22:05:18.439Z,66.52
2019-03-19T22:07:46.718Z,66.78
2019-03-19T22:10:19.804Z,66.50
2019-03-19T22:12:49.329Z,66.59
2019-03-19T22:15:25.417Z,66.62
2019-03-19T22:17:54.343Z,66.41
2019-03-19T22:20:22.534Z,66.51
2019-03-19T22:22:50.744Z,66.58
2019-03-19T22:25:18.956Z,66.39
2019-03-19T22:27:47.422Z,66.67
2019-03-19T22:30:20.628Z,66.99
2019-03-19T22:32:48.843Z,67.31
2019-03-19T22:35:17.193Z,67.38
2019-03-19T22:37:45.411Z,67.68
2019-03-19T22:40:14.747Z,67.85
2019-03-19T22:42:42.942Z,68.16
2019-03-19T22:45:19.072Z,68.37
2019-03-19T22:47:47.331Z,68.34
2019-03-19T22:50:16.277Z,68.14
2019-03-19T22:52:44.481Z,68.18
2019-03-19T22:55:15.822Z,68.31
2019-03-19T22:57:44.024Z,68.42
2019-03-19T23:00:16.052Z,68.48
2019-03-19T23:02:44.922Z,68.59
2019-03-19T23:05:14.241Z,68.65
2019-03-19T23:07:42.386Z,68.61
2019-03-19T23:10:10.599Z,68.66
2019-03-19T23:12:39.047Z,68.61
2019-03-19T23:15:12.157Z,68.88
2019-03-19T23:17:40.394Z,69.02
2019-03-19T23:20:13.142Z,68.80
2019-03-19T23:22:41.351Z,68.86
2019-03-19T23:25:09.555Z,68.67
2019-03-19T23:27:37.774Z,69.02
2019-03-19T23:30:14.937Z,69.27
2019-03-19T23:32:43.148Z,69.28
2019-03-19T23:35:11.344Z,69.06
2019-03-19T23:37:39.564Z,69.13
2019-03-19T23:40:12.422Z,69.37
2019-03-19T23:42:40.637Z,69.86
2019-03-19T23:45:10.477Z,70.13
2019-03-19T23:47:38.689Z,70.20
2019-03-19T23:50:10.144Z,69.66
2019-03-19T23:52:38.362Z,69.18
2019-03-19T23:55:07.703Z,69.16
2019-03-19T23:57:36.151Z,69.52
